createdAt,value
2022-11-07T00:03:33.608Z,8.83
2022-11-07T00:09:36.222Z,8.92
2022-11-07T00:15:38.144Z,9.02
2022-11-07T00:21:41.666Z,9.10
2022-11-07T00:27:43.690Z,9.36
2022-11-07T00:33:46.493Z,9.33
2022-11-07T00:39:48.374Z,9.40
2022-11-07T00:45:50.792Z,9.48
2022-11-07T00:51:52.686Z,9.53
2022-11-07T00:57:55.528Z,9.54
2022-11-07T01:04:28.917Z,9.86
2022-11-07T01:10:32.538Z,10.04
2022-11-07T01:16:36.128Z,9.86
2022-11-07T01:22:38.201Z,9.81
2022-11-07T01:28:40.680Z,9.76
2022-11-07T01:34:42.762Z,9.51
2022-11-07T01:41:04.844Z,9.28
2022-11-07T01:47:07.547Z,9.25
2022-11-07T01:53:09.794Z,9.32
2022-11-07T01:59:19.446Z,9.10
2022-11-07T02:06:09.335Z,9.27
2022-11-07T02:12:12.232Z,9.26
2022-11-07T02:32:18.085Z,9.39
2022-11-07T02:44:40.197Z,9.66
2022-11-07T02:50:47.969Z,9.74
2022-11-07T02:56:50.114Z,9.83
2022-11-07T03:02:52.287Z,9.75
2022-11-07T03:08:54.307Z,9.93
2022-11-07T03:14:56.339Z,10.09
2022-11-07T03:20:58.235Z,10.09
2022-11-07T03:27:09.763Z,10.18
2022-11-07T03:33:12.150Z,10.23
2022-11-07T03:39:14.456Z,10.27
2022-11-07T03:45:17.049Z,10.18
2022-11-07T03:51:19.761Z,10.20
2022-11-07T03:57:24.121Z,10.35
2022-11-07T04:03:26.101Z,10.39
2022-11-07T04:09:28.064Z,10.08
2022-11-07T04:15:51.348Z,9.88
2022-11-07T04:21:53.361Z,10.31
2022-11-07T04:27:55.236Z,10.03
2022-11-07T04:33:57.194Z,10.08
2022-11-07T04:40:00.067Z,10.23
2022-11-07T04:46:07.545Z,10.20
2022-11-07T04:53:07.173Z,10.07
2022-11-07T04:59:09.227Z,10.51
2022-11-07T05:05:12.038Z,10.53
2022-11-07T05:11:13.943Z,10.17
2022-11-07T05:17:16.997Z,10.20
2022-11-07T05:23:20.285Z,9.95
2022-11-07T05:29:22.448Z,9.94
2022-11-07T05:35:24.510Z,10.26
2022-11-07T05:55:05.680Z,10.62
2022-11-07T06:01:08.777Z,10.65
2022-11-07T06:07:10.899Z,10.70
2022-11-07T06:13:17.139Z,10.69
2022-11-07T06:19:21.904Z,10.72
2022-11-07T06:25:39.287Z,10.38
2022-11-07T06:31:41.612Z,10.38
2022-11-07T06:38:19.056Z,10.31
2022-11-07T06:44:21.033Z,10.25
2022-11-07T06:50:23.874Z,10.29
2022-11-07T06:56:26.113Z,10.39
2022-11-07T07:02:56.366Z,10.61
2022-11-07T07:08:50.209Z,10.31
2022-11-07T07:14:52.218Z,10.34
2022-11-07T07:21:06.626Z,10.39
2022-11-07T07:27:08.567Z,10.62
2022-11-07T07:33:10.640Z,10.68
2022-11-07T07:39:12.533Z,10.93
2022-11-07T07:45:16.078Z,11.08
2022-11-07T07:51:18.142Z,11.15
2022-11-07T07:57:20.113Z,11.33
2022-11-07T08:03:22.017Z,11.69
2022-11-07T08:09:23.982Z,11.73
2022-11-07T08:15:26.165Z,11.90
2022-11-07T08:21:28.091Z,12.12
2022-11-07T08:27:30.438Z,12.15
2022-11-07T08:33:33.062Z,12.31
2022-11-07T08:39:41.028Z,12.51
2022-11-07T08:45:43.257Z,12.67
2022-11-07T08:51:45.112Z,12.89
2022-11-07T08:57:47.139Z,12.85
2022-11-07T09:03:56.432Z,13.52
2022-11-07T09:10:00.057Z,13.41
2022-11-07T09:16:04.602Z,13.57
2022-11-07T09:22:06.834Z,13.81
2022-11-07T09:28:10.113Z,13.63
2022-11-07T09:34:12.204Z,13.95
2022-11-07T09:40:26.522Z,13.71
2022-11-07T09:47:01.167Z,14.13
2022-11-07T09:53:42.249Z,13.81
2022-11-07T10:00:15.792Z,14.13
2022-11-07T10:07:09.328Z,14.26
2022-11-07T10:20:35.118Z,14.33
2022-11-07T10:33:13.746Z,14.71
2022-11-07T10:39:19.318Z,15.07
2022-11-07T10:45:22.570Z,14.75
2022-11-07T10:51:43.929Z,14.54
2022-11-07T10:58:14.893Z,14.35
2022-11-07T11:04:30.336Z,14.43
2022-11-07T11:10:39.302Z,14.33
2022-11-07T11:16:43.268Z,14.60
2022-11-07T11:22:45.417Z,14.81
2022-11-07T11:29:09.099Z,14.59
2022-11-07T11:35:31.758Z,14.50
2022-11-07T11:41:52.286Z,14.60
2022-11-07T11:48:11.104Z,14.44
2022-11-07T11:54:16.827Z,14.46
2022-11-07T12:00:22.711Z,14.53
2022-11-07T12:06:36.465Z,14.91
2022-11-07T12:12:59.365Z,14.88
2022-11-07T12:19:48.467Z,14.84
2022-11-07T12:32:41.986Z,14.92
2022-11-07T12:39:01.433Z,15.00
2022-11-07T12:45:33.891Z,15.05
2022-11-07T12:52:01.229Z,15.07
2022-11-07T12:58:29.371Z,14.86
2022-11-07T13:04:53.083Z,14.87
2022-11-07T13:17:30.593Z,14.55
2022-11-07T13:23:33.210Z,14.66
2022-11-07T13:29:38.416Z,14.60
2022-11-07T13:35:57.291Z,14.24
2022-11-07T13:42:01.364Z,14.39
2022-11-07T13:48:13.181Z,14.04
2022-11-07T13:54:56.183Z,14.04
2022-11-07T14:01:13.594Z,14.00
2022-11-07T14:07:15.759Z,13.88
2022-11-07T14:13:23.011Z,13.93
2022-11-07T14:19:27.331Z,13.90
2022-11-07T14:25:35.664Z,13.87
2022-11-07T14:31:38.298Z,14.11
2022-11-07T14:44:05.506Z,14.24
2022-11-07T14:50:30.899Z,14.06
2022-11-07T15:04:25.267Z,13.78
2022-11-07T15:10:39.677Z,14.05
2022-11-07T15:16:51.599Z,13.83
2022-11-07T15:22:53.589Z,13.99
2022-11-07T15:29:21.205Z,13.70
2022-11-07T15:35:42.935Z,13.74
2022-11-07T15:41:45.115Z,13.79
2022-11-07T15:47:48.317Z,13.84
2022-11-07T15:53:50.450Z,14.00
2022-11-07T15:59:52.500Z,13.73
2022-11-07T16:06:01.598Z,13.71
2022-11-07T16:12:03.799Z,13.64
2022-11-07T16:18:06.104Z,13.77
2022-11-07T16:24:18.709Z,13.66
2022-11-07T16:30:21.647Z,13.56
2022-11-07T16:37:12.887Z,13.74
2022-11-07T16:43:17.379Z,13.45
2022-11-07T16:49:32.754Z,13.64
2022-11-07T16:56:00.184Z,13.98
2022-11-07T17:02:05.483Z,13.64
2022-11-07T17:08:37.433Z,13.86
2022-11-07T17:14:39.432Z,13.78
2022-11-07T17:20:50.997Z,13.82
2022-11-07T17:26:53.701Z,13.84
2022-11-07T17:32:55.716Z,13.55
2022-11-07T17:39:05.065Z,13.55
2022-11-07T17:45:07.948Z,13.91
2022-11-07T17:51:10.981Z,13.89
2022-11-07T17:57:13.003Z,13.71
2022-11-07T18:03:32.966Z,13.88
2022-11-07T18:09:35.357Z,13.84
2022-11-07T18:22:24.022Z,13.65
2022-11-07T18:28:28.033Z,13.62
2022-11-07T18:34:30.575Z,13.76
2022-11-07T18:40:32.553Z,13.80
2022-11-07T18:46:34.491Z,13.68
2022-11-07T18:52:36.651Z,13.74
2022-11-07T18:58:44.359Z,13.75
2022-11-07T19:04:49.931Z,13.80
2022-11-07T19:17:01.091Z,13.74
2022-11-07T19:23:03.007Z,13.70
2022-11-07T19:29:05.817Z,13.69
2022-11-07T19:35:08.389Z,13.78
2022-11-07T19:41:11.705Z,13.76
2022-11-07T19:47:14.228Z,13.61
2022-11-07T19:53:16.809Z,13.78
2022-11-07T19:59:18.931Z,13.64
2022-11-07T20:05:27.771Z,13.54
2022-11-07T20:11:29.822Z,13.51
2022-11-07T20:17:31.841Z,13.60
2022-11-07T20:23:34.145Z,13.76
2022-11-07T20:29:36.844Z,13.64
2022-11-07T20:35:42.394Z,13.69
2022-11-07T20:41:44.377Z,13.69
2022-11-07T20:47:52.035Z,13.52
2022-11-07T20:53:55.878Z,13.30
2022-11-07T20:59:58.031Z,13.30
2022-11-07T21:06:01.078Z,13.14
2022-11-07T21:12:03.203Z,13.21
2022-11-07T21:18:05.406Z,13.11
2022-11-07T21:24:08.144Z,12.98
2022-11-07T21:30:10.589Z,12.93
2022-11-07T21:36:22.078Z,12.91
2022-11-07T21:50:23.850Z,13.02
2022-11-07T21:56:31.968Z,12.64
2022-11-07T22:02:34.675Z,12.79
2022-11-07T22:08:39.892Z,12.89
2022-11-07T22:14:42.921Z,12.99
2022-11-07T22:20:44.846Z,12.70
2022-11-07T22:26:46.846Z,12.64
2022-11-07T22:32:51.992Z,12.46
2022-11-07T22:38:55.611Z,12.48
2022-11-07T22:44:57.578Z,12.39
2022-11-07T22:51:12.223Z,12.26
2022-11-07T22:57:17.863Z,12.01
2022-11-07T23:03:20.195Z,11.89
2022-11-07T23:09:22.450Z,11.76
2022-11-07T23:15:33.909Z,11.60
2022-11-07T23:21:36.871Z,11.52
2022-11-07T23:27:38.811Z,11.73
2022-11-07T23:33:41.310Z,11.57
2022-11-07T23:39:43.335Z,11.32
2022-11-07T23:46:04.108Z,11.19
2022-11-07T23:52:06.498Z,10.97
2022-11-07T23:58:26.749Z,10.93
